sensor_id;sensor_type;location;lat;lon;timestamp;temperature;humidity
65637;DHT22;52327;42.622;23.316;2024-01-15T00:00:53;-1.06;74.98
65637;DHT22;52327;42.622;23.316;2024-01-15T00:03:26;-0.95;74.66
65637;DHT22;52327;42.622;23.316;2024-01-15T00:05:57;-0.85;73.02
65637;DHT22;52327;42.622;23.316;2024-01-15T00:08:34;-0.79;73.39
65637;DHT22;52327;42.622;23.316;2024-01-15T00:11:00;-0.72;72.12
65637;DHT22;52327;42.622;23.316;2024-01-15T00:13:41;-0.95;75.75
65637;DHT22;52327;42.622;23.316;2024-01-15T00:16:06;-0.86;74.76
65637;DHT22;52327;42.622;23.316;2024-01-15T00:18:44;-0.93;75.99
65637;DHT22;52327;42.622;23.316;2024-01-15T00:21:15;-0.96;74.27
65637;DHT22;52327;42.622;23.316;2024-01-15T00:23:47;-1.04;74.54
65637;DHT22;52327;42.622;23.316;2024-01-15T00:26:12;-1.21;75.21
65637;DHT22;52327;42.622;23.316;2024-01-15T00:28:42;-1.03;73.22
65637;DHT22;52327;42.622;23.316;2024-01-15T00:31:16;-1.04;72.21
65637;DHT22;52327;42.622;23.316;2024-01-15T00:33:46;-1.06;75.22
65637;DHT22;52327;42.622;23.316;2024-01-15T00:36:14;-1.16;76.97
65637;DHT22;52327;42.622;23.316;2024-01-15T00:38:49;-1.21;75.98
65637;DHT22;52327;42.622;23.316;2024-01-15T00:41:19;-1.21;76.06
65637;DHT22;52327;42.622;23.316;2024-01-15T00:43:47;-1.23;76.59
65637;DHT22;52327;42.622;23.316;2024-01-15T00:46:15;-0.99;73.01
65637;DHT22;52327;42.622;23.316;2024-01-15T00:48:40;-1.00;73.35
65637;DHT22;52327;42.622;23.316;2024-01-15T00:51:06;-0.95;74.08
65637;DHT22;52327;42.622;23.316;2024-01-15T00:53:34;-0.90;73.47
65637;DHT22;52327;42.622;23.316;2024-01-15T00:56:11;-1.10;76.10
65637;DHT22;52327;42.622;23.316;2024-01-15T00:58:39;-1.19;77.88
65637;DHT22;52327;42.622;23.316;2024-01-15T01:01:18;-1.00;75.42
65637;DHT22;52327;42.622;23.316;2024-01-15T01:03:47;-1.06;76.55
65637;DHT22;52327;42.622;23.316;2024-01-15T01:06:21;-1.16;77.90
65637;DHT22;52327;42.622;23.316;2024-01-15T01:08:49;-0.95;74.25
65637;DHT22;52327;42.622;23.316;2024-01-15T01:11:15;-1.14;75.37
65637;DHT22;52327;42.622;23.316;2024-01-15T01:13:41;-1.31;77.08
65637;DHT22;52327;42.622;23.316;2024-01-15T01:16:07;-1.31;76.99
65637;DHT22;52327;42.622;23.316;2024-01-15T01:18:36;-1.34;78.30
65637;DHT22;52327;42.622;23.316;2024-01-15T01:21:02;-1.26;78.22
65637;DHT22;52327;42.622;23.316;2024-01-15T01:23:28;-1.34;77.79
65637;DHT22;52327;42.622;23.316;2024-01-15T01:25:56;-1.23;74.30
65637;DHT22;52327;42.622;23.316;2024-01-15T01:28:21;-1.20;75.32
65637;DHT22;52327;42.622;23.316;2024-01-15T01:30:47;-1.21;76.08
65637;DHT22;52327;42.622;23.316;2024-01-15T01:33:15;-1.33;77.18
65637;DHT22;52327;42.622;23.316;2024-01-15T01:35:41;-1.39;78.38
65637;DHT22;52327;42.622;23.316;2024-01-15T01:38:07;-1.14;73.61
65637;DHT22;52327;42.622;23.316;2024-01-15T01:40:32;-1.24;74.46
65637;DHT22;52327;42.622;23.316;2024-01-15T01:43:04;-1.16;72.97
65637;DHT22;52327;42.622;23.316;2024-01-15T01:45:29;-1.14;74.20
65637;DHT22;52327;42.622;23.316;2024-01-15T01:47:57;-1.21;75.14
65637;DHT22;52327;42.622;23.316;2024-01-15T01:50:26;-1.34;76.39
65637;DHT22;52327;42.622;23.316;2024-01-15T01:52:54;-1.26;77.32
65637;DHT22;52327;42.622;23.316;2024-01-15T01:55:24;-1.31;76.36
65637;DHT22;52327;42.622;23.316;2024-01-15T01:57:56;-1.31;77.49
65637;DHT22;52327;42.622;23.316;2024-01-15T02:00:22;-1.39;75.86
65637;DHT22;52327;42.622;23.316;2024-01-15T02:02:48;-1.41;76.39
65637;DHT22;52327;42.622;23.316;2024-01-15T02:05:18;-1.68;76.72
65637;DHT22;52327;42.622;23.316;2024-01-15T02:07:47;-1.67;77.55
65637;DHT22;52327;42.622;23.316;2024-01-15T02:10:13;-1.77;77.24
65637;DHT22;52327;42.622;23.316;2024-01-15T02:12:48;-1.67;78.81
65637;DHT22;52327;42.622;23.316;2024-01-15T02:15:31;-1.58;75.00
65637;DHT22;52327;42.622;23.316;2024-01-15T02:18:04;-1.47;76.55
65637;DHT22;52327;42.622;23.316;2024-01-15T02:20:41;-1.39;76.40
65637;DHT22;52327;42.622;23.316;2024-01-15T02:23:12;-1.39;77.93
65637;DHT22;52327;42.622;23.316;2024-01-15T02:25:58;-1.47;75.26
65637;DHT22;52327;42.622;23.316;2024-01-15T02:28:34;-1.33;73.82
65637;DHT22;52327;42.622;23.316;2024-01-15T02:31:00;-1.11;72.72
65637;DHT22;52327;42.622;23.316;2024-01-15T02:33:28;-1.30;76.03
65637;DHT22;52327;42.622;23.316;2024-01-15T02:35:56;-1.33;77.53
65637;DHT22;52327;42.622;23.316;2024-01-15T02:38:27;-1.30;78.02
65637;DHT22;52327;42.622;23.316;2024-01-15T02:41:11;-1.26;75.49
65637;DHT22;52327;42.622;23.316;2024-01-15T02:43:39;-1.20;75.32
65637;DHT22;52327;42.622;23.316;2024-01-15T02:46:18;-1.09;74.00
65637;DHT22;52327;42.622;23.316;2024-01-15T02:48:43;-1.40;75.14
65637;DHT22;52327;42.622;23.316;2024-01-15T02:51:16;-1.55;76.02
65637;DHT22;52327;42.622;23.316;2024-01-15T02:53:52;-1.44;77.32
65637;DHT22;52327;42.622;23.316;2024-01-15T02:56:21;-1.36;75.99
65637;DHT22;52327;42.622;23.316;2024-01-15T02:58:52;-1.39;75.22
65637;DHT22;52327;42.622;23.316;2024-01-15T03:01:36;-1.44;74.75
65637;DHT22;52327;42.622;23.316;2024-01-15T03:04:04;-1.33;74.71
65637;DHT22;52327;42.622;23.316;2024-01-15T03:06:41;-1.34;74.66
65637;DHT22;52327;42.622;23.316;2024-01-15T03:09:09;-1.24;73.93
65637;DHT22;52327;42.622;23.316;2024-01-15T03:11:40;-1.47;75.30
65637;DHT22;52327;42.622;23.316;2024-01-15T03:14:19;-1.31;75.80
65637;DHT22;52327;42.622;23.316;2024-01-15T03:17:02;-1.33;76.12
65637;DHT22;52327;42.622;23.316;2024-01-15T03:19:34;-1.24;75.27
65637;DHT22;52327;42.622;23.316;2024-01-15T03:22:08;-1.24;77.43
65637;DHT22;52327;42.622;23.316;2024-01-15T03:24:37;-1.09;76.86
65637;DHT22;52327;42.622;23.316;2024-01-15T03:27:08;-1.00;76.35
65637;DHT22;52327;42.622;23.316;2024-01-15T03:30:03;-1.06;75.64
65637;DHT22;52327;42.622;23.316;2024-01-15T03:32:36;-1.04;77.02
65637;DHT22;52327;42.622;23.316;2024-01-15T03:35:07;-1.04;76.42
65637;DHT22;52327;42.622;23.316;2024-01-15T03:37:32;-1.01;74.15
65637;DHT22;52327;42.622;23.316;2024-01-15T03:40:06;-0.88;73.43
65637;DHT22;52327;42.622;23.316;2024-01-15T03:42:35;-0.79;73.10
65637;DHT22;52327;42.622;23.316;2024-01-15T03:45:03;-0.73;72.15
65637;DHT22;52327;42.622;23.316;2024-01-15T03:47:36;-0.92;75.46
65637;DHT22;52327;42.622;23.316;2024-01-15T03:50:15;-1.03;75.63
65637;DHT22;52327;42.622;23.316;2024-01-15T03:53:00;-1.33;76.51
65637;DHT22;52327;42.622;23.316;2024-01-15T03:55:32;-1.39;77.77
65637;DHT22;52327;42.622;23.316;2024-01-15T03:58:11;-1.51;76.75
65637;DHT22;52327;42.622;23.316;2024-01-15T04:00:48;-1.47;76.99
65637;DHT22;52327;42.622;23.316;2024-01-15T04:03:16;-1.29;76.30
65637;DHT22;52327;42.622;23.316;2024-01-15T04:05:53;-1.16;77.01
65637;DHT22;52327;42.622;23.316;2024-01-15T04:08:25;-1.19;77.25
65637;DHT22;52327;42.622;23.316;2024-01-15T04:10:53;-1.13;77.94
65637;DHT22;52327;42.622;23.316;2024-01-15T04:17:06;-1.10;76.17
65637;DHT22;52327;42.622;23.316;2024-01-15T04:19:34;-1.04;74.91
65637;DHT22;52327;42.622;23.316;2024-01-15T04:22:03;-1.31;76.36
65637;DHT22;52327;42.622;23.316;2024-01-15T04:24:34;-1.39;76.67
65637;DHT22;52327;42.622;23.316;2024-01-15T04:26:59;-1.46;77.36
65637;DHT22;52327;42.622;23.316;2024-01-15T04:29:35;-1.61;77.85
65637;DHT22;52327;42.622;23.316;2024-01-15T04:32:02;-1.52;77.52
65637;DHT22;52327;42.622;23.316;2024-01-15T04:34:38;-1.43;76.15
65637;DHT22;52327;42.622;23.316;2024-01-15T04:37:06;-1.44;76.98
65637;DHT22;52327;42.622;23.316;2024-01-15T04:39:35;-1.39;75.45
65637;DHT22;52327;42.622;23.316;2024-01-15T04:42:22;-1.23;74.99
65637;DHT22;52327;42.622;23.316;2024-01-15T04:45:01;-1.10;74.90
65637;DHT22;52327;42.622;23.316;2024-01-15T04:47:51;-1.29;76.79
65637;DHT22;52327;42.622;23.316;2024-01-15T04:50:27;-1.23;77.32
65637;DHT22;52327;42.622;23.316;2024-01-15T04:52:58;-1.21;76.21
65637;DHT22;52327;42.622;23.316;2024-01-15T04:55:23;-1.03;73.65
65637;DHT22;52327;42.622;23.316;2024-01-15T04:57:56;-1.11;74.97
65637;DHT22;52327;42.622;23.316;2024-01-15T05:00:32;-1.07;73.23
65637;DHT22;52327;42.622;23.316;2024-01-15T05:02:58;-1.30;77.04
65637;DHT22;52327;42.622;23.316;2024-01-15T05:05:23;-1.13;73.81
65637;DHT22;52327;42.622;23.316;2024-01-15T05:07:56;-1.06;72.35
65637;DHT22;52327;42.622;23.316;2024-01-15T05:10:21;-1.36;76.33
65637;DHT22;52327;42.622;23.316;2024-01-15T05:13:04;-1.24;75.30
65637;DHT22;52327;42.622;23.316;2024-01-15T05:15:38;-1.27;76.02
65637;DHT22;52327;42.622;23.316;2024-01-15T05:18:03;-1.26;76.98
65637;DHT22;52327;42.622;23.316;2024-01-15T05:20:33;-1.30;74.49
65637;DHT22;52327;42.622;23.316;2024-01-15T05:23:02;-1.27;75.51
65637;DHT22;52327;42.622;23.316;2024-01-15T05:25:32;-1.14;74.34
65637;DHT22;52327;42.622;23.316;2024-01-15T05:27:58;-1.24;75.08
65637;DHT22;52327;42.622;23.316;2024-01-15T05:30:29;-1.16;74.38
65637;DHT22;52327;42.622;23.316;2024-01-15T05:33:00;-1.27;75.99
65637;DHT22;52327;42.622;23.316;2024-01-15T05:35:28;-1.01;72.43
65637;DHT22;52327;42.622;23.316;2024-01-15T05:37:54;-1.04;74.01
65637;DHT22;52327;42.622;23.316;2024-01-15T05:40:19;-0.99;74.63
65637;DHT22;52327;42.622;23.316;2024-01-15T05:42:45;-1.01;76.33
65637;DHT22;52327;42.622;23.316;2024-01-15T05:45:10;-1.09;76.60
65637;DHT22;52327;42.622;23.316;2024-01-15T05:47:42;-1.16;75.63
65637;DHT22;52327;42.622;23.316;2024-01-15T05:50:16;-1.07;74.69
65637;DHT22;52327;42.622;23.316;2024-01-15T05:52:42;-1.20;75.70
65637;DHT22;52327;42.622;23.316;2024-01-15T05:55:10;-1.41;75.59
65637;DHT22;52327;42.622;23.316;2024-01-15T05:57:39;-1.31;76.07
65637;DHT22;52327;42.622;23.316;2024-01-15T06:02:57;-1.37;76.82
65637;DHT22;52327;42.622;23.316;2024-01-15T06:05:22;-1.36;77.42
65637;DHT22;52327;42.622;23.316;2024-01-15T06:07:48;-1.24;76.40
65637;DHT22;52327;42.622;23.316;2024-01-15T06:10:13;-1.27;77.69
65637;DHT22;52327;42.622;23.316;2024-01-15T06:12:39;-1.09;75.51
65637;DHT22;52327;42.622;23.316;2024-01-15T06:15:04;-1.26;76.93
65637;DHT22;52327;42.622;23.316;2024-01-15T06:17:30;-1.26;77.63
65637;DHT22;52327;42.622;23.316;2024-01-15T06:19:56;-1.06;75.66
65637;DHT22;52327;42.622;23.316;2024-01-15T06:22:22;-1.06;76.17
65637;DHT22;52327;42.622;23.316;2024-01-15T06:24:47;-1.00;77.10
65637;DHT22;52327;42.622;23.316;2024-01-15T06:27:16;-0.99;76.21
65637;DHT22;52327;42.622;23.316;2024-01-15T06:29:45;-0.95;75.84
65637;DHT22;52327;42.622;23.316;2024-01-15T06:32:11;-0.97;75.89
65637;DHT22;52327;42.622;23.316;2024-01-15T06:34:37;-0.76;74.57
65637;DHT22;52327;42.622;23.316;2024-01-15T06:37:02;-0.68;76.06
65637;DHT22;52327;42.622;23.316;2024-01-15T06:39:27;-0.69;76.45
65637;DHT22;52327;42.622;23.316;2024-01-15T06:42:15;-0.66;76.87
65637;DHT22;52327;42.622;23.316;2024-01-15T06:44:40;-0.54;74.76
65637;DHT22;52327;42.622;23.316;2024-01-15T06:47:14;-0.24;74.15
65637;DHT22;52327;42.622;23.316;2024-01-15T06:49:40;0.00;73.88
65637;DHT22;52327;42.622;23.316;2024-01-15T06:52:05;0.20;73.21
65637;DHT22;52327;42.622;23.316;2024-01-15T06:54:31;0.41;72.93
65637;DHT22;52327;42.622;23.316;2024-01-15T06:56:57;0.57;73.30
65637;DHT22;52327;42.622;23.316;2024-01-15T06:59:22;0.82;72.27
65637;DHT22;52327;42.622;23.316;2024-01-15T07:01:47;0.79;71.61
65637;DHT22;52327;42.622;23.316;2024-01-15T07:04:13;0.71;73.12
65637;DHT22;52327;42.622;23.316;2024-01-15T07:06:38;0.67;72.76
65637;DHT22;52327;42.622;23.316;2024-01-15T07:09:04;0.51;73.83
65637;DHT22;52327;42.622;23.316;2024-01-15T07:11:29;0.62;74.44
65637;DHT22;52327;42.622;23.316;2024-01-15T07:14:00;0.51;73.15
65637;DHT22;52327;42.622;23.316;2024-01-15T07:16:26;0.44;71.68
65637;DHT22;52327;42.622;23.316;2024-01-15T07:18:51;0.44;72.13
65637;DHT22;52327;42.622;23.316;2024-01-15T07:21:16;0.67;72.82
65637;DHT22;52327;42.622;23.316;2024-01-15T07:23:42;0.93;70.40
65637;DHT22;52327;42.622;23.316;2024-01-15T07:26:07;1.05;70.71
65637;DHT22;52327;42.622;23.316;2024-01-15T07:28:33;1.16;70.80
65637;DHT22;52327;42.622;23.316;2024-01-15T07:30:58;1.10;72.18
65637;DHT22;52327;42.622;23.316;2024-01-15T07:33:26;1.37;70.00
65637;DHT22;52327;42.622;23.316;2024-01-15T07:35:54;1.56;69.45
65637;DHT22;52327;42.622;23.316;2024-01-15T07:38:19;1.49;71.38
65637;DHT22;52327;42.622;23.316;2024-01-15T07:40:45;1.64;70.80
65637;DHT22;52327;42.622;23.316;2024-01-15T07:43:14;1.50;72.03
65637;DHT22;52327;42.622;23.316;2024-01-15T07:45:40;1.49;72.52
65637;DHT22;52327;42.622;23.316;2024-01-15T07:48:05;1.54;73.24
65637;DHT22;52327;42.622;23.316;2024-01-15T07:50:31;1.49;72.60
65637;DHT22;52327;42.622;23.316;2024-01-15T07:52:59;1.70;72.23
65637;DHT22;52327;42.622;23.316;2024-01-15T07:55:25;1.81;70.98
65637;DHT22;52327;42.622;23.316;2024-01-15T07:57:50;1.88;69.98
65637;DHT22;52327;42.622;23.316;2024-01-15T08:00:18;2.02;71.18
65637;DHT22;52327;42.622;23.316;2024-01-15T08:02:44;2.19;70.81
65637;DHT22;52327;42.622;23.316;2024-01-15T08:05:09;2.33;70.66
65637;DHT22;52327;42.622;23.316;2024-01-15T08:07:34;2.49;68.94
65637;DHT22;52327;42.622;23.316;2024-01-15T08:10:00;2.50;69.35
65637;DHT22;52327;42.622;23.316;2024-01-15T08:12:25;2.50;69.36
65637;DHT22;52327;42.622;23.316;2024-01-15T08:14:50;2.49;68.00
65637;DHT22;52327;42.622;23.316;2024-01-15T08:17:16;2.62;69.07
65637;DHT22;52327;42.622;23.316;2024-01-15T08:19:42;2.66;68.96
65637;DHT22;52327;42.622;23.316;2024-01-15T08:22:08;2.62;70.19
65637;DHT22;52327;42.622;23.316;2024-01-15T08:24:33;2.29;69.43
65637;DHT22;52327;42.622;23.316;2024-01-15T08:26:58;1.56;67.93
65637;DHT22;52327;42.622;23.316;2024-01-15T08:29:24;1.46;70.63
65637;DHT22;52327;42.622;23.316;2024-01-15T08:31:50;1.53;71.98
65637;DHT22;52327;42.622;23.316;2024-01-15T08:34:15;1.46;71.35
65637;DHT22;52327;42.622;23.316;2024-01-15T08:36:41;1.49;71.58
65637;DHT22;52327;42.622;23.316;2024-01-15T08:39:07;1.39;71.61
65637;DHT22;52327;42.622;23.316;2024-01-15T08:41:34;0.86;68.84
65637;DHT22;52327;42.622;23.316;2024-01-15T08:44:00;0.64;72.32
65637;DHT22;52327;42.622;23.316;2024-01-15T08:46:25;0.88;72.25
65637;DHT22;52327;42.622;23.316;2024-01-15T08:48:50;1.02;73.50
65637;DHT22;52327;42.622;23.316;2024-01-15T08:51:16;1.20;70.66
65637;DHT22;52327;42.622;23.316;2024-01-15T08:53:45;1.19;71.28
65637;DHT22;52327;42.622;23.316;2024-01-15T08:56:11;0.76;69.68
65637;DHT22;52327;42.622;23.316;2024-01-15T08:58:36;0.76;71.35
65637;DHT22;52327;42.622;23.316;2024-01-15T09:01:02;0.74;69.82
65637;DHT22;52327;42.622;23.316;2024-01-15T09:03:30;0.84;70.09
65637;DHT22;52327;42.622;23.316;2024-01-15T09:05:58;0.96;71.58
65637;DHT22;52327;42.622;23.316;2024-01-15T09:08:23;1.39;68.25
65637;DHT22;52327;42.622;23.316;2024-01-15T09:10:50;1.42;69.90
65637;DHT22;52327;42.622;23.316;2024-01-15T09:13:15;1.43;71.57
65637;DHT22;52327;42.622;23.316;2024-01-15T09:15:42;1.54;69.63
65637;DHT22;52327;42.622;23.316;2024-01-15T09:18:07;1.73;70.42
65637;DHT22;52327;42.622;23.316;2024-01-15T09:20:33;1.75;71.76
65637;DHT22;52327;42.622;23.316;2024-01-15T09:22:58;1.85;69.03
65637;DHT22;52327;42.622;23.316;2024-01-15T09:25:24;1.88;69.56
65637;DHT22;52327;42.622;23.316;2024-01-15T09:27:49;1.94;71.84
65637;DHT22;52327;42.622;23.316;2024-01-15T09:30:15;1.27;66.38
65637;DHT22;52327;42.622;23.316;2024-01-15T09:32:40;1.35;68.28
65637;DHT22;52327;42.622;23.316;2024-01-15T09:35:06;1.49;68.25
65637;DHT22;52327;42.622;23.316;2024-01-15T09:37:32;1.63;69.80
65637;DHT22;52327;42.622;23.316;2024-01-15T09:39:57;1.85;69.92
65637;DHT22;52327;42.622;23.316;2024-01-15T09:42:24;1.88;69.59
65637;DHT22;52327;42.622;23.316;2024-01-15T09:44:51;1.70;66.12
65637;DHT22;52327;42.622;23.316;2024-01-15T09:47:18;1.99;67.70
65637;DHT22;52327;42.622;23.316;2024-01-15T09:49:44;1.71;66.98
65637;DHT22;52327;42.622;23.316;2024-01-15T09:52:10;1.58;67.34
65637;DHT22;52327;42.622;23.316;2024-01-15T09:54:37;1.43;67.51
65637;DHT22;52327;42.622;23.316;2024-01-15T09:57:04;1.56;68.67
65637;DHT22;52327;42.622;23.316;2024-01-15T09:59:29;1.66;69.64
65637;DHT22;52327;42.622;23.316;2024-01-15T10:01:57;1.70;69.03
65637;DHT22;52327;42.622;23.316;2024-01-15T10:04:24;1.82;67.29
65637;DHT22;52327;42.622;23.316;2024-01-15T10:06:51;1.88;69.24
65637;DHT22;52327;42.622;23.316;2024-01-15T10:09:17;1.61;67.23
65637;DHT22;52327;42.622;23.316;2024-01-15T10:11:43;1.90;67.73
65637;DHT22;52327;42.622;23.316;2024-01-15T10:14:13;1.87;66.54
65637;DHT22;52327;42.622;23.316;2024-01-15T10:16:42;1.80;65.21
65637;DHT22;52327;42.622;23.316;2024-01-15T10:19:08;1.75;66.59
65637;DHT22;52327;42.622;23.316;2024-01-15T10:21:34;1.63;66.98
65637;DHT22;52327;42.622;23.316;2024-01-15T10:24:03;1.95;68.56
65637;DHT22;52327;42.622;23.316;2024-01-15T10:26:29;2.15;67.53
65637;DHT22;52327;42.622;23.316;2024-01-15T10:28:55;2.19;66.88
65637;DHT22;52327;42.622;23.316;2024-01-15T10:31:21;1.85;67.05
65637;DHT22;52327;42.622;23.316;2024-01-15T10:33:50;1.68;67.81
65637;DHT22;52327;42.622;23.316;2024-01-15T10:36:16;1.87;68.48
65637;DHT22;52327;42.622;23.316;2024-01-15T10:38:43;1.84;67.69
65637;DHT22;52327;42.622;23.316;2024-01-15T10:41:09;2.02;67.11
65637;DHT22;52327;42.622;23.316;2024-01-15T10:43:34;1.88;67.87
65637;DHT22;52327;42.622;23.316;2024-01-15T10:46:00;2.07;68.42
65637;DHT22;52327;42.622;23.316;2024-01-15T10:48:26;2.25;67.40
65637;DHT22;52327;42.622;23.316;2024-01-15T10:50:53;2.54;67.48
65637;DHT22;52327;42.622;23.316;2024-01-15T10:53:19;2.80;67.24
65637;DHT22;52327;42.622;23.316;2024-01-15T10:55:46;3.10;65.65
65637;DHT22;52327;42.622;23.316;2024-01-15T10:58:15;3.04;66.40
65637;DHT22;52327;42.622;23.316;2024-01-15T11:00:41;2.86;66.09
65637;DHT22;52327;42.622;23.316;2024-01-15T11:03:07;2.91;67.54
65637;DHT22;52327;42.622;23.316;2024-01-15T11:05:42;3.35;67.14
65637;DHT22;52327;42.622;23.316;2024-01-15T11:08:08;3.28;64.07
65637;DHT22;52327;42.622;23.316;2024-01-15T11:10:48;2.82;64.42
65637;DHT22;52327;42.622;23.316;2024-01-15T11:13:40;3.17;67.45
65637;DHT22;52327;42.622;23.316;2024-01-15T11:16:11;3.52;64.28
65637;DHT22;52327;42.622;23.316;2024-01-15T11:18:40;3.36;64.61
65637;DHT22;52327;42.622;23.316;2024-01-15T11:26:37;3.51;65.46
65637;DHT22;52327;42.622;23.316;2024-01-15T11:29:29;4.02;64.38
65637;DHT22;52327;42.622;23.316;2024-01-15T11:37:24;3.65;63.40
65637;DHT22;52327;42.622;23.316;2024-01-15T11:39:54;4.06;65.72
65637;DHT22;52327;42.622;23.316;2024-01-15T11:42:20;4.43;64.58
65637;DHT22;52327;42.622;23.316;2024-01-15T11:44:46;4.18;63.81
65637;DHT22;52327;42.622;23.316;2024-01-15T11:47:12;4.23;62.77
65637;DHT22;52327;42.622;23.316;2024-01-15T11:52:17;4.47;64.72
65637;DHT22;52327;42.622;23.316;2024-01-15T11:55:00;4.36;64.16
65637;DHT22;52327;42.622;23.316;2024-01-15T11:57:45;4.16;63.53
65637;DHT22;52327;42.622;23.316;2024-01-15T12:00:12;4.40;65.50
65637;DHT22;52327;42.622;23.316;2024-01-15T12:02:40;4.44;63.52
65637;DHT22;52327;42.622;23.316;2024-01-15T12:05:07;4.34;63.37
65637;DHT22;52327;42.622;23.316;2024-01-15T12:07:32;4.53;65.49
65637;DHT22;52327;42.622;23.316;2024-01-15T12:10:01;4.27;66.14
65637;DHT22;52327;42.622;23.316;2024-01-15T12:12:40;4.72;65.09
65637;DHT22;52327;42.622;23.316;2024-01-15T12:15:11;4.78;64.81
65637;DHT22;52327;42.622;23.316;2024-01-15T12:17:38;4.54;63.98
65637;DHT22;52327;42.622;23.316;2024-01-15T12:20:04;4.10;66.79
65637;DHT22;52327;42.622;23.316;2024-01-15T12:22:30;4.62;65.46
65637;DHT22;52327;42.622;23.316;2024-01-15T12:24:55;4.60;66.98
65637;DHT22;52327;42.622;23.316;2024-01-15T12:27:21;4.50;63.91
65637;DHT22;52327;42.622;23.316;2024-01-15T12:29:47;4.67;66.27
65637;DHT22;52327;42.622;23.316;2024-01-15T12:32:12;4.64;67.73
65637;DHT22;52327;42.622;23.316;2024-01-15T12:34:38;4.43;68.73
65637;DHT22;52327;42.622;23.316;2024-01-15T12:37:03;4.72;69.09
65637;DHT22;52327;42.622;23.316;2024-01-15T12:39:29;4.47;67.76
65637;DHT22;52327;42.622;23.316;2024-01-15T12:41:54;4.96;65.11
65637;DHT22;52327;42.622;23.316;2024-01-15T12:44:20;5.04;66.79
65637;DHT22;52327;42.622;23.316;2024-01-15T12:46:46;5.11;67.10
65637;DHT22;52327;42.622;23.316;2024-01-15T12:49:15;5.11;67.08
65637;DHT22;52327;42.622;23.316;2024-01-15T12:51:41;5.20;68.57
65637;DHT22;52327;42.622;23.316;2024-01-15T12:54:06;5.33;61.77
65637;DHT22;52327;42.622;23.316;2024-01-15T12:56:32;5.25;66.51
65637;DHT22;52327;42.622;23.316;2024-01-15T12:59:00;5.29;64.59
65637;DHT22;52327;42.622;23.316;2024-01-15T13:01:31;5.32;68.90
65637;DHT22;52327;42.622;23.316;2024-01-15T13:03:59;5.40;65.78
65637;DHT22;52327;42.622;23.316;2024-01-15T13:06:33;5.40;69.18
65637;DHT22;52327;42.622;23.316;2024-01-15T13:09:04;5.38;70.31
65637;DHT22;52327;42.622;23.316;2024-01-15T13:11:35;5.42;69.12
65637;DHT22;52327;42.622;23.316;2024-01-15T13:14:13;5.61;65.95
65637;DHT22;52327;42.622;23.316;2024-01-15T13:16:40;5.46;70.04
65637;DHT22;52327;42.622;23.316;2024-01-15T13:19:10;5.36;70.04
65637;DHT22;52327;42.622;23.316;2024-01-15T13:21:42;5.33;69.99
65637;DHT22;52327;42.622;23.316;2024-01-15T13:24:07;5.35;69.92
65637;DHT22;52327;42.622;23.316;2024-01-15T13:26:33;5.35;70.22
65637;DHT22;52327;42.622;23.316;2024-01-15T13:29:00;5.26;71.11
65637;DHT22;52327;42.622;23.316;2024-01-15T13:31:27;5.05;71.71
65637;DHT22;52327;42.622;23.316;2024-01-15T13:33:53;5.20;70.88
65637;DHT22;52327;42.622;23.316;2024-01-15T13:36:18;5.40;68.90
65637;DHT22;52327;42.622;23.316;2024-01-15T13:38:43;5.35;70.62
65637;DHT22;52327;42.622;23.316;2024-01-15T13:41:09;5.15;73.67
65637;DHT22;52327;42.622;23.316;2024-01-15T13:43:34;4.85;73.61
65637;DHT22;52327;42.622;23.316;2024-01-15T13:46:00;4.74;75.58
65637;DHT22;52327;42.622;23.316;2024-01-15T13:48:29;4.62;75.88
65637;DHT22;52327;42.622;23.316;2024-01-15T13:50:55;4.67;74.34
65637;DHT22;52327;42.622;23.316;2024-01-15T13:53:21;4.75;76.12
65637;DHT22;52327;42.622;23.316;2024-01-15T13:55:46;4.87;74.18
65637;DHT22;52327;42.622;23.316;2024-01-15T13:58:12;4.92;73.98
65637;DHT22;52327;42.622;23.316;2024-01-15T14:00:38;4.75;75.45
65637;DHT22;52327;42.622;23.316;2024-01-15T14:03:04;4.71;74.99
65637;DHT22;52327;42.622;23.316;2024-01-15T14:05:30;4.93;72.62
65637;DHT22;52327;42.622;23.316;2024-01-15T14:07:56;4.92;73.53
65637;DHT22;52327;42.622;23.316;2024-01-15T14:10:21;4.87;73.76
65637;DHT22;52327;42.622;23.316;2024-01-15T14:12:47;4.79;75.76
65637;DHT22;52327;42.622;23.316;2024-01-15T14:15:12;4.40;77.04
65637;DHT22;52327;42.622;23.316;2024-01-15T14:17:38;4.40;77.78
65637;DHT22;52327;42.622;23.316;2024-01-15T14:20:04;4.54;77.21
65637;DHT22;52327;42.622;23.316;2024-01-15T14:22:30;4.53;77.47
65637;DHT22;52327;42.622;23.316;2024-01-15T14:24:56;3.76;74.38
65637;DHT22;52327;42.622;23.316;2024-01-15T14:27:21;3.85;78.25
65637;DHT22;52327;42.622;23.316;2024-01-15T14:29:47;4.00;78.16
65637;DHT22;52327;42.622;23.316;2024-01-15T14:32:12;4.14;78.71
65637;DHT22;52327;42.622;23.316;2024-01-15T14:34:37;4.30;77.82
65637;DHT22;52327;42.622;23.316;2024-01-15T14:37:03;4.18;78.33
65637;DHT22;52327;42.622;23.316;2024-01-15T14:39:28;4.32;77.04
65637;DHT22;52327;42.622;23.316;2024-01-15T14:41:54;4.53;72.37
65637;DHT22;52327;42.622;23.316;2024-01-15T14:44:19;4.48;75.72
65637;DHT22;52327;42.622;23.316;2024-01-15T14:46:45;4.38;76.81
65637;DHT22;52327;42.622;23.316;2024-01-15T14:49:11;4.37;76.23
65637;DHT22;52327;42.622;23.316;2024-01-15T14:51:36;4.38;75.80
65637;DHT22;52327;42.622;23.316;2024-01-15T14:54:02;4.26;78.70
65637;DHT22;52327;42.622;23.316;2024-01-15T14:56:27;4.20;76.91
65637;DHT22;52327;42.622;23.316;2024-01-15T14:58:54;4.18;77.85
65637;DHT22;52327;42.622;23.316;2024-01-15T15:01:19;4.32;77.97
65637;DHT22;52327;42.622;23.316;2024-01-15T15:03:45;4.27;78.55
65637;DHT22;52327;42.622;23.316;2024-01-15T15:06:10;4.17;77.74
65637;DHT22;52327;42.622;23.316;2024-01-15T15:08:46;4.10;77.27
65637;DHT22;52327;42.622;23.316;2024-01-15T15:11:11;3.93;77.99
65637;DHT22;52327;42.622;23.316;2024-01-15T15:13:37;3.75;79.66
65637;DHT22;52327;42.622;23.316;2024-01-15T15:16:02;3.89;80.27
65637;DHT22;52327;42.622;23.316;2024-01-15T15:18:28;3.95;78.63
65637;DHT22;52327;42.622;23.316;2024-01-15T15:20:55;3.75;76.35
65637;DHT22;52327;42.622;23.316;2024-01-15T15:23:21;3.18;76.95
65637;DHT22;52327;42.622;23.316;2024-01-15T15:25:46;3.41;75.50
65637;DHT22;52327;42.622;23.316;2024-01-15T15:28:12;3.50;79.58
65637;DHT22;52327;42.622;23.316;2024-01-15T15:30:37;3.54;79.55
65637;DHT22;52327;42.622;23.316;2024-01-15T15:33:03;3.46;76.89
65637;DHT22;52327;42.622;23.316;2024-01-15T15:35:30;3.46;74.46
65637;DHT22;52327;42.622;23.316;2024-01-15T15:37:56;3.11;78.74
65637;DHT22;52327;42.622;23.316;2024-01-15T15:40:21;3.13;78.13
65637;DHT22;52327;42.622;23.316;2024-01-15T15:42:48;3.23;76.92
65637;DHT22;52327;42.622;23.316;2024-01-15T15:45:13;3.32;77.11
65637;DHT22;52327;42.622;23.316;2024-01-15T15:47:38;3.23;79.86
65637;DHT22;52327;42.622;23.316;2024-01-15T15:50:04;3.34;78.35
65637;DHT22;52327;42.622;23.316;2024-01-15T15:52:30;3.39;75.38